Latest Weather Observations for Birdsville

IDQ60801

Issued at 6:52 pm EST Wednesday 19 June 2019 (issued every 10 minutes, with the page automatically refreshed every 10 minutes)

About weather observations | Map of weather stations | Latest weather observations for QLD | Other Formats
Station Details ID: 038026 Name: BIRDSVILLE AIRPORT Lat: -25.90 Lon: 139.35 Height: 46.6 m
Data from the previous 72 hours. | See also: Recent months at Birdsville
Date/Time
EST
Temp
°C
App
Temp
°C
Dew
Point
°C
Rel
Hum
%
Delta-T
°C
Wind Press
QNH
hPa
Press
MSL
hPa
Rain since
9am
mm
Dir  Spd
km/h
Gust
km/h
Spd
kts
Gust
kts
19/06:30pm 14.9 11.1 3.7 47 5.1 SSW 13 17 7 9 1022.8 1022.8 0.0
19/06:00pm 16.3 11.6 3.4 42 5.9 SSW 17 20 9 11 1022.5 1022.5 0.0
19/05:30pm 17.7 12.6 2.8 37 6.8 SSW 19 20 10 11 1022.2 1022.2 0.0
19/05:00pm 18.4 13.0 1.0 31 7.7 SSE 19 24 10 13 1022.1 1022.1 0.0
19/04:30pm 18.9 13.9 1.4 31 7.9 S 17 26 9 14 1021.9 1021.9 0.0
19/04:00pm 18.9 13.3 1.0 30 8.0 S 20 28 11 15 1021.9 1021.9 0.0
19/03:30pm 19.0 14.1 2.0 32 7.8 SSE 17 26 9 14 1022.0 1022.0 0.0
19/03:00pm 18.6 13.3 1.6 32 7.6 SSE 19 26 10 14 1022.1 1022.1 0.0
19/02:30pm 19.1 14.7 2.5 33 7.7 SSE 15 26 8 14 1022.3 1022.3 0.0
19/02:00pm 19.0 14.5 2.4 33 7.6 SSE 15 22 8 12 1022.7 1022.7 0.0
19/01:30pm 18.2 13.7 2.1 34 7.3 SE 15 24 8 13 1023.2 1023.2 0.0
19/01:00pm 18.3 13.4 1.8 33 7.4 S 17 28 9 15 1023.6 1023.6 0.0
19/12:30pm 18.4 14.0 4.6 40 6.6 SSE 17 20 9 11 1024.2 1024.2 0.0
19/12:00pm 17.7 14.2 5.3 44 6.0 SE 13 22 7 12 1024.9 1024.9 0.0
19/11:30am 17.0 12.7 5.3 46 5.6 SE 17 20 9 11 1025.3 1025.3 0.0
19/11:00am 15.9 12.0 5.2 49 5.1 SE 15 19 8 10 1025.5 1025.5 0.0
19/10:30am 14.5 10.2 5.3 54 4.3 SE 17 19 9 10 1025.6 1025.6 0.0
19/10:00am 13.0 8.6 4.7 57 3.8 SE 17 20 9 11 1025.6 1025.6 0.0
19/09:30am 11.2 7.1 4.4 63 3.1 SSE 15 19 8 10 1025.3 1025.3 0.0
19/09:00am 9.4 5.2 4.0 69 2.4 S 15 19 8 10 1025.2 1025.2 0.0
19/08:30am 6.8 3.2 3.2 78 1.5 SSW 11 13 6 7 1024.9 1024.9 0.0
19/08:00am 5.4 1.3 2.4 81 1.2 SSW 13 15 7 8 1024.7 1024.7 0.0
19/07:30am 5.4 1.7 2.4 81 1.2 S 11 13 6 7 1024.4 1024.4 0.0
19/07:00am 5.7 1.7 2.7 81 1.2 S 13 15 7 8 1024.2 1024.2 0.0
19/06:30am 5.2 1.9 2.2 81 1.2 SSW 9 11 5 6 1024.0 1024.0 0.0
19/06:00am 5.4 2.1 2.6 82 1.1 SSW 9 13 5 7 1023.8 1023.8 0.0
19/05:30am 6.1 2.5 3.1 81 1.3 SSW 11 13 6 7 1023.6 1023.6 0.0
19/05:00am 6.3 2.0 3.1 80 1.3 SW 15 19 8 10 1023.4 1023.4 0.0
19/04:30am 6.6 3.0 2.7 76 1.6 SSW 11 15 6 8 1023.5 1023.5 0.0
19/04:00am 7.7 4.2 3.4 74 1.8 SSW 11 13 6 7 1023.2 1023.2 0.0
19/03:30am 7.2 3.7 3.3 76 1.7 SW 11 15 6 8 1023.2 1023.2 0.0
19/03:00am 6.9 2.6 3.0 76 1.6 SSW 15 20 8 11 1023.0 1023.0 0.0
19/02:30am 8.0 5.5 3.7 74 1.9 S 6 9 3 5 1022.6 1022.6 0.0
19/02:00am 7.5 5.3 3.6 76 1.7 S 4 6 2 3 1022.5 1022.5 0.0
19/01:30am 7.2 2.9 3.3 76 1.7 SSW 15 17 8 9 1022.8 1022.8 0.0
19/01:00am 7.9 3.9 2.8 70 2.1 SSW 13 13 7 7 1023.4 1023.4 0.0
19/12:30am 8.4 4.7 2.6 67 2.4 SW 11 13 6 7 1023.8 1023.8 0.0
19/12:00am 8.5 5.5 2.3 65 2.6 SSW 7 11 4 6 1024.0 1024.0 0.0
 
Date/Time
EST
Temp
°C
App
Temp
°C
Dew
Point
°C
Rel
Hum
%
Delta-T
°C
Wind Press
QNH
hPa
Press
MSL
hPa
Rain since
9am
mm
Dir  Spd
km/h
Gust
km/h
Spd
kts
Gust
kts
18/11:30pm 9.6 5.7 3.4 65 2.7 SW 13 15 7 8 1024.4 1024.4 0.0
18/11:00pm 10.1 7.4 3.8 65 2.8 SSW 7 17 4 9 1024.2 1024.2 0.0
18/10:30pm 10.3 8.0 4.7 68 2.5 WSW 6 13 3 7 1023.9 1023.9 0.0
18/10:00pm 10.4 7.9 4.5 67 2.6 SSW 7 9 4 5 1023.6 1023.6 0.0
18/09:30pm 10.1 7.6 4.5 68 2.5 S 7 7 4 4 1023.4 1023.4 0.0
18/09:00pm 10.3 6.9 4.0 65 2.8 SSW 11 13 6 7 1023.4 1023.4 0.0
18/08:30pm 11.1 7.4 4.3 63 3.1 SSW 13 15 7 8 1023.2 1023.2 0.0
18/08:00pm 12.6 9.1 3.3 53 4.1 S 11 13 6 7 1022.9 1022.9 0.0
18/07:30pm 14.3 10.5 3.7 49 4.8 S 13 13 7 7 1022.7 1022.7 0.0
18/07:00pm 14.9 11.1 3.7 47 5.1 S 13 15 7 8 1022.7 1022.7 0.0
18/06:30pm 15.6 11.8 3.7 45 5.5 SSW 13 15 7 8 1022.7 1022.7 0.0
18/06:00pm 16.7 12.5 3.7 42 6.0 SSW 15 17 8 9 1022.7 1022.7 0.0
18/05:30pm 18.2 13.0 3.3 37 6.9 SSW 20 26 11 14 1022.5 1022.5 0.0
18/05:00pm 18.4 13.4 3.8 38 6.9 SSW 19 22 10 12 1022.5 1022.5 0.0
18/04:30pm 18.9 12.5 3.1 35 7.4 SSW 26 33 14 18 1022.3 1022.3 0.0
18/04:00pm 18.7 13.5 3.3 36 7.2 SSW 20 33 11 18 1022.2 1022.2 0.0
18/03:30pm 19.0 13.7 2.8 34 7.5 SSW 20 30 11 16 1022.1 1022.1 0.0
18/03:00pm 19.5 13.5 3.2 34 7.6 SSW 24 32 13 17 1022.1 1022.1 0.0
18/02:30pm 19.1 13.0 2.9 34 7.5 S 24 35 13 19 1022.1 1022.1 0.0
18/02:00pm 19.0 12.9 2.8 34 7.5 S 24 35 13 19 1022.5 1022.5 0.0
18/01:30pm 18.7 13.5 3.3 36 7.2 S 20 32 11 17 1023.0 1023.0 0.0
18/01:00pm 18.8 13.1 2.6 34 7.4 S 22 35 12 19 1023.4 1023.4 0.0
18/12:30pm 18.7 13.4 2.9 35 7.3 SSW 20 28 11 15 1023.9 1023.9 0.0
18/12:00pm 18.8 13.3 3.8 37 7.1 S 22 32 12 17 1024.4 1024.4 0.0
18/11:30am 17.8 12.7 4.0 40 6.5 SSW 20 28 11 15 1024.8 1024.8 0.0
18/11:00am 17.0 12.6 4.7 44 5.8 S 17 20 9 11 1025.1 1025.1 0.0
18/10:30am 16.0 12.3 4.4 46 5.4 SSW 13 17 7 9 1025.3 1025.3 0.0
18/10:00am 14.7 11.4 4.7 51 4.6 S 11 15 6 8 1025.2 1025.2 0.0
18/09:30am 12.7 9.9 5.1 60 3.5 SW 9 11 5 6 1025.0 1025.0 0.0
18/09:00am 11.2 9.0 3.5 59 3.4 WSW 4 9 2 5 1024.7 1024.7 0.0
18/08:30am 9.7 8.2 3.2 64 2.8 CALM 0 0 0 0 1024.5 1024.5 0.0
18/08:00am 9.5 7.0 3.5 66 2.6 WSW 6 6 3 3 1024.2 1024.2 0.0
18/07:30am 8.8 6.2 3.4 69 2.3 SSW 6 15 3 8 1023.9 1023.9 0.0
18/07:00am 8.2 6.8 3.5 72 2.0 CALM 0 0 0 0 1023.4 1023.4 0.0
18/06:30am 7.7 5.8 3.0 72 2.0 S 2 6 1 3 1023.3 1023.3 0.0
18/06:00am 7.5 4.9 3.0 73 1.9 SSE 6 7 3 4 1023.2 1023.2 0.0
18/05:30am 7.0 4.4 3.1 76 1.6 SSE 6 7 3 4 1023.1 1023.1 0.0
18/05:00am 7.5 4.4 3.6 76 1.7 SW 9 9 5 5 1023.2 1023.2 0.0
18/04:30am 7.5 4.0 3.4 75 1.7 SW 11 11 6 6 1023.2 1023.2 0.0
18/04:00am 7.8 4.7 3.8 76 1.7 SW 9 11 5 6 1023.0 1023.0 0.0
18/03:30am 7.9 4.0 3.4 73 1.9 SW 13 19 7 10 1023.0 1023.0 0.0
18/03:00am 8.0 4.5 3.3 72 2.0 SW 11 13 6 7 1022.9 1022.9 0.0
18/02:30am 8.3 6.8 3.0 69 2.3 CALM 0 9 0 5 1022.9 1022.9 0.0
18/02:00am 8.5 6.9 2.7 67 2.4 CALM 0 0 0 0 1022.9 1022.9 0.0
18/01:30am 9.0 5.4 2.8 65 2.6 SSW 11 11 6 6 1022.8 1022.8 0.0
18/01:00am 9.9 6.4 3.4 64 2.8 SW 11 13 6 7 1022.8 1022.8 0.0
18/12:30am 9.7 8.1 2.6 61 3.0 CALM 0 0 0 0 1022.9 1022.9 0.0
18/12:00am 10.4 9.0 3.4 62 3.0 CALM 0 0 0 0 1023.0 1023.0 0.0
 
Date/Time
EST
Temp
°C
App
Temp
°C
Dew
Point
°C
Rel
Hum
%
Delta-T
°C
Wind Press
QNH
hPa
Press
MSL
hPa
Rain since
9am
mm
Dir  Spd
km/h
Gust
km/h
Spd
kts
Gust
kts
17/11:30pm 10.4 9.0 3.4 62 3.1 CALM 0 0 0 0 1023.0 1023.0 0.0
17/11:00pm 10.3 8.8 3.1 61 3.1 CALM 0 6 0 3 1023.0 1023.0 0.0
17/10:30pm 11.0 8.2 3.3 59 3.4 SW 7 9 4 5 1023.1 1023.1 0.0
17/10:00pm 11.0 7.5 3.3 59 3.4 SW 11 13 6 7 1023.1 1023.1 0.0
17/09:30pm 11.5 8.0 3.3 57 3.6 SW 11 11 6 6 1023.2 1023.2 0.0
17/09:00pm 12.4 8.9 3.6 55 3.9 SSW 11 11 6 6 1023.1 1023.1 0.0
17/08:30pm 12.9 9.0 3.6 53 4.2 SSW 13 15 7 8 1023.0 1023.0 0.0
17/08:00pm 14.6 10.0 3.7 48 5.0 SSW 17 20 9 11 1022.9 1022.9 0.0
17/07:30pm 14.8 10.5 3.0 45 5.3 SSW 15 17 8 9 1022.7 1022.7 0.0
17/07:00pm 15.7 11.7 2.8 42 5.8 SSW 13 15 7 8 1022.3 1022.3 0.0
17/06:30pm 16.2 12.2 2.9 41 6.0 SSW 13 17 7 9 1022.2 1022.2 0.0
17/06:00pm 17.1 13.2 3.4 40 6.3 SW 13 15 7 8 1022.0 1022.0 0.0
17/05:30pm 19.1 14.3 2.5 33 7.7 SSW 17 20 9 11 1021.7 1021.7 0.0
17/05:00pm 19.8 15.3 2.2 31 8.1 S 15 20 8 11 1021.5 1021.5 0.0
17/04:30pm 20.1 15.6 2.0 30 8.3 S 15 20 8 11 1021.6 1021.6 0.0
17/04:00pm 20.5 16.0 1.9 29 8.5 S 15 19 8 10 1021.7 1021.7 0.0
17/03:30pm 20.4 17.0 1.8 29 8.6 SSW 9 15 5 8 1021.8 1021.8 0.0
17/03:00pm 20.9 17.2 2.2 29 8.7 SSE 11 17 6 9 1022.0 1022.0 0.0
17/02:30pm 20.3 17.0 2.2 30 8.4 SSW 9 15 5 8 1022.1 1022.1 0.0
17/02:00pm 20.0 16.1 1.4 29 8.4 ESE 11 17 6 9 1022.5 1022.5 0.0
17/01:30pm 19.8 16.4 1.7 30 8.3 ESE 9 17 5 9 1023.2 1023.2 0.0
17/01:00pm 20.1 17.3 2.0 30 8.3 ESE 6 13 3 7 1023.8 1023.8 0.0
17/12:30pm 19.4 16.1 2.7 33 7.8 ESE 9 15 5 8 1024.3 1024.3 0.0
17/12:00pm 19.1 15.4 2.5 33 7.6 SE 11 17 6 9 1024.7 1024.7 0.0
17/11:30am 18.3 14.3 2.6 35 7.2 SE 13 15 7 8 1025.0 1025.0 0.0
17/11:00am 17.9 14.0 3.4 38 6.7 SSE 13 15 7 8 1025.3 1025.3 0.0
17/10:30am 16.4 13.5 4.4 45 5.6 SSE 9 13 5 7 1025.5 1025.5 0.0
17/10:00am 14.4 11.9 5.0 53 4.4 S 7 11 4 6 1025.4 1025.4 0.0
17/09:30am 11.9 9.4 4.9 62 3.2 SSW 7 9 4 5 1025.1 1025.1 0.0
17/09:00am 10.0 7.0 4.0 66 2.6 SW 9 9 5 5 1024.9 1024.9 0.2
17/08:30am 8.3 5.2 3.4 71 2.1 SW 9 11 5 6 1024.6 1024.6 0.2
17/08:00am 6.9 3.5 1.8 70 2.1 SW 9 9 5 5 1024.3 1024.3 0.2
17/07:30am 6.4 3.3 1.5 71 2.0 SSW 7 9 4 5 1023.9 1023.9 0.2
17/07:00am 6.5 3.7 2.2 74 1.8 SSW 6 7 3 4 1023.5 1023.5 0.2
17/06:30am 7.1 4.3 3.0 75 1.7 SSW 7 9 4 5 1022.9 1022.9 0.2
17/06:00am 7.6 4.8 3.1 73 1.9 SSW 7 9 4 5 1022.7 1022.7 0.2
17/05:30am 6.9 3.7 3.2 77 1.6 SSW 9 11 5 6 1022.5 1022.5 0.2
17/05:00am 7.0 4.2 3.1 76 1.6 SW 7 9 4 5 1022.5 1022.5 0.2
17/04:30am 7.2 3.6 2.9 74 1.8 SSW 11 13 6 7 1022.3 1022.3 0.2
17/04:00am 8.7 5.5 2.9 67 2.5 SW 9 11 5 6 1022.3 1022.3 0.2
17/03:30am 8.9 5.9 4.1 72 2.1 SSW 9 11 5 6 1022.3 1022.3 0.2
17/03:00am 8.1 5.1 3.9 75 1.8 SW 9 11 5 6 1022.5 1022.5 0.2
17/02:30am 8.8 5.4 3.8 71 2.2 SSW 11 15 6 8 1022.7 1022.7 0.2
17/02:00am 9.6 6.2 4.2 69 2.4 SW 11 13 6 7 1022.9 1022.9 0.2
17/01:30am 9.1 6.1 4.3 72 2.1 SSW 9 11 5 6 1023.2 1023.2 0.2
17/01:00am 9.3 5.9 3.9 69 2.4 SW 11 15 6 8 1023.3 1023.3 0.2
17/12:30am 10.3 7.4 4.5 67 2.6 SW 9 11 5 6 1023.4 1023.4 0.2
17/12:00am 10.2 7.3 4.6 68 2.5 SSW 9 9 5 5 1023.5 1023.5 0.2
 
Date/Time
EST
Temp
°C
App
Temp
°C
Dew
Point
°C
Rel
Hum
%
Delta-T
°C
Wind Press
QNH
hPa
Press
MSL
hPa
Rain since
9am
mm
Dir  Spd
km/h
Gust
km/h
Spd
kts
Gust
kts
16/11:30pm 10.1 7.0 3.8 65 2.8 SW 9 11 5 6 1023.7 1023.7 0.2
16/11:00pm 10.6 7.7 4.5 66 2.7 SW 9 11 5 6 1023.6 1023.6 0.2
16/10:30pm 10.8 7.9 4.5 65 2.8 SW 9 11 5 6 1023.5 1023.5 0.2
16/10:00pm 11.3 8.4 4.5 63 3.1 SSW 9 11 5 6 1023.3 1023.3 0.2
16/09:30pm 11.4 8.0 4.2 61 3.2 SSW 11 15 6 8 1023.4 1023.4 0.2
16/09:00pm 11.5 8.2 4.3 61 3.2 SSW 11 13 6 7 1023.3 1023.3 0.2
16/08:30pm 12.6 8.5 4.3 57 3.8 SW 15 17 8 9 1023.3 1023.3 0.2
16/08:00pm 13.2 10.3 4.4 55 4.0 SSW 9 11 5 6 1022.9 1022.9 0.2
16/07:30pm 14.2 10.9 4.5 52 4.5 SSW 11 13 6 7 1022.4 1022.4 0.2
16/07:00pm 15.1 11.4 4.2 48 5.0 SSW 13 15 7 8 1022.2 1022.2 0.2

Other formats

Comma delimited format used in spreadsheet applications
http://www.bom.gov.au/fwo/IDQ60801/IDQ60801.95482.axf

JavaScript Object Notation format (JSON) in row-major order
http://www.bom.gov.au/fwo/IDQ60801/IDQ60801.95482.json

Data quality

Most of these data are generated automatically and are frequently updated. Quality checks on data are not normally performed. It is possible for incorrect values to appear. Refer to information at About Latest Weather Observations and please check the disclaimer before using these data.